Time;durP1;ratioP1;P1;durP2;ratioP2;P2;SDS_P1;SDS_P2;PMS_P1;PMS_P2;Temp;Humidity;BMP_temperature;BMP_pressure;BME280_temperature;BME280_humidity;BME280_pressure;Samples;Min_cycle;Max_cycle;Signal;HPM_P1;HPM_P2
2022/04/28 00:00:21;;;;;;;11.10;3.15;;;9.30;99.00;;;;;;5006473;28;20419;-76
2022/04/28 00:02:47;;;;;;;9.60;2.73;;;9.20;99.00;;;;;;5033930;28;20401;-76
2022/04/28 00:05:13;;;;;;;6.63;2.20;;;9.30;98.80;;;;;;5070706;28;20451;-76
2022/04/28 00:07:40;;;;;;;5.80;2.03;;;9.20;98.30;;;;;;5088020;28;20441;-76
2022/04/28 00:10:06;;;;;;;6.97;2.10;;;9.20;98.00;;;;;;5087740;28;20445;-76
2022/04/28 00:12:32;;;;;;;6.70;2.00;;;9.20;98.10;;;;;;5088519;28;20401;-76
2022/04/28 00:14:58;;;;;;;8.32;2.10;;;9.20;98.20;;;;;;5087683;28;20405;-76
2022/04/28 00:17:24;;;;;;;9.98;2.30;;;9.20;98.00;;;;;;5087525;28;20685;-76
2022/04/28 00:19:49;;;;;;;8.17;2.33;;;9.30;98.00;;;;;;5087691;28;20409;-76
2022/04/28 00:22:16;;;;;;;7.85;2.65;;;9.30;98.00;;;;;;5088552;28;20487;-76
2022/04/28 00:24:43;;;;;;;8.80;2.25;;;9.30;98.10;;;;;;5088192;28;20799;-76
2022/04/28 00:27:09;;;;;;;8.53;1.93;;;9.20;98.30;;;;;;5087397;28;20955;-77
2022/04/28 00:29:34;;;;;;;6.47;1.85;;;9.30;98.30;;;;;;5088915;28;20543;-76
2022/04/28 00:32:00;;;;;;;7.38;2.22;;;9.30;98.10;;;;;;5088551;28;20456;-76
2022/04/28 00:34:26;;;;;;;8.80;1.92;;;9.30;98.30;;;;;;5088394;28;20792;-76
2022/04/28 00:36:52;;;;;;;8.70;2.03;;;9.20;98.00;;;;;;5088727;28;20456;-76
2022/04/28 00:39:17;;;;;;;8.88;2.30;;;9.30;98.40;;;;;;5088568;28;20402;-76
2022/04/28 00:41:43;;;;;;;9.70;2.33;;;9.20;98.30;;;;;;5087047;28;20402;-76
2022/04/28 00:44:10;;;;;;;8.50;2.20;;;9.20;98.20;;;;;;5088363;28;20406;-76
2022/04/28 00:46:37;;;;;;;7.63;2.13;;;9.20;98.20;;;;;;5088026;28;20405;-76
2022/04/28 00:51:47;;;;;;;7.90;2.03;;;9.30;98.20;;;;;;5087625;28;20402;-76
2022/04/28 00:54:13;;;;;;;8.65;2.03;;;9.30;98.20;;;;;;5088381;28;20398;-76
2022/04/28 00:56:40;;;;;;;7.07;2.20;;;9.30;98.30;;;;;;5086426;28;20420;-76
2022/04/28 00:59:06;;;;;;;9.75;2.70;;;9.20;98.70;;;;;;5086855;28;20764;-76
2022/04/28 01:01:32;;;;;;;9.02;2.72;;;9.20;98.20;;;;;;5087115;28;20449;-76
2022/04/28 01:03:59;;;;;;;5.80;2.17;;;9.20;98.40;;;;;;5018749;28;20869;-76
2022/04/28 01:06:25;;;;;;;7.60;2.28;;;9.20;98.60;;;;;;5004808;28;20405;-76
2022/04/28 01:08:51;;;;;;;9.02;2.60;;;9.20;98.60;;;;;;5004979;28;20405;-76
2022/04/28 01:11:17;;;;;;;9.20;2.33;;;9.20;98.90;;;;;;5004166;28;20967;-76
2022/04/28 01:13:43;;;;;;;8.60;2.50;;;9.20;98.70;;;;;;5005269;28;20413;-76
2022/04/28 01:16:09;;;;;;;10.15;2.58;;;9.20;98.90;;;;;;5005126;28;20432;-76
2022/04/28 01:18:35;;;;;;;8.60;2.90;;;9.20;98.60;;;;;;5004918;28;20436;-77
2022/04/28 01:21:04;;;;;;;6.47;2.33;;;9.20;99.00;;;;;;5003623;28;20405;-77
2022/04/28 01:23:35;;;;;;;7.57;2.42;;;9.20;99.10;;;;;;5005061;28;20441;-76
2022/04/28 01:26:01;;;;;;;8.23;2.90;;;9.20;98.80;;;;;;5004941;28;20484;-76
2022/04/28 01:28:27;;;;;;;6.78;2.50;;;9.20;98.70;;;;;;5004607;28;20405;-77
2022/04/28 01:30:53;;;;;;;8.05;2.70;;;9.20;98.70;;;;;;5003590;28;20415;-76
2022/04/28 01:33:19;;;;;;;7.53;2.80;;;9.10;98.80;;;;;;5004992;28;20906;-76
2022/04/28 01:35:45;;;;;;;10.57;2.87;;;9.10;99.00;;;;;;5003672;28;20405;-77
2022/04/28 01:38:10;;;;;;;8.48;2.67;;;9.10;99.10;;;;;;5003589;28;20831;-76
2022/04/28 01:40:36;;;;;;;8.53;2.67;;;9.10;99.30;;;;;;5003936;28;20405;-77
2022/04/28 01:43:01;;;;;;;6.60;2.50;;;9.10;99.30;;;;;;5002876;28;20953;-76
2022/04/28 01:45:27;;;;;;;8.80;2.50;;;9.10;99.30;;;;;;5003447;28;20428;-77
2022/04/28 01:47:52;;;;;;;9.55;2.38;;;9.10;99.50;;;;;;5004750;28;20413;-76
2022/04/28 01:50:18;;;;;;;7.97;2.80;;;9.10;99.70;;;;;;4983100;28;20425;-76
2022/04/28 01:55:31;;;;;;;8.65;2.90;;;9.10;99.90;;;;;;5084063;28;20397;-76
2022/04/28 01:57:57;;;;;;;8.45;3.15;;;9.10;99.90;;;;;;5062435;28;20434;-77
2022/04/28 02:00:23;;;;;;;8.93;3.03;;;9.10;99.90;;;;;;4985112;28;20415;-77
2022/04/28 02:02:48;;;;;;;7.35;3.03;;;9.10;99.90;;;;;;4983856;28;20476;-77
2022/04/28 02:05:14;;;;;;;8.67;3.23;;;9.20;99.90;;;;;;4983543;28;20437;-77
2022/04/28 02:07:40;;;;;;;10.38;3.83;;;9.10;99.90;;;;;;5056892;28;20428;-77
2022/04/28 02:10:06;;;;;;;9.63;3.13;;;9.10;99.90;;;;;;5069281;28;20412;-77
2022/04/28 02:12:31;;;;;;;9.88;3.20;;;9.10;99.90;;;;;;5085532;28;20414;-76
2022/04/28 02:14:57;;;;;;;10.23;3.00;;;9.10;99.90;;;;;;5085555;28;20405;-77
2022/04/28 02:17:24;;;;;;;8.38;2.92;;;9.10;99.90;;;;;;5086435;28;20425;-77
2022/04/28 02:19:50;;;;;;;8.05;2.92;;;9.10;99.90;;;;;;5086172;28;20406;-76
2022/04/28 02:22:16;;;;;;;9.55;3.30;;;9.00;99.90;;;;;;5085678;28;20405;-76
2022/04/28 02:24:42;;;;;;;9.53;2.90;;;9.10;99.90;;;;;;5014479;28;20411;-77
2022/04/28 02:27:08;;;;;;;9.27;3.00;;;9.10;99.90;;;;;;4984086;28;20448;-77
2022/04/28 02:29:34;;;;;;;9.57;2.90;;;9.00;99.90;;;;;;4983447;28;20742;-76
2022/04/28 02:32:00;;;;;;;7.30;2.60;;;9.00;99.90;;;;;;5085850;28;20753;-77
2022/04/28 02:34:25;;;;;;;8.52;3.13;;;9.00;99.90;;;;;;4983651;28;20509;-77
2022/04/28 02:36:51;;;;;;;8.37;3.07;;;9.00;99.90;;;;;;4984134;28;20489;-77
2022/04/28 02:39:18;;;;;;;8.75;2.85;;;9.00;99.90;;;;;;4984243;28;20573;-75
2022/04/28 02:41:47;;;;;;;9.15;3.22;;;9.00;99.90;;;;;;4982954;28;20859;-75
2022/04/28 02:44:13;;;;;;;8.50;2.80;;;9.00;99.90;;;;;;4983460;28;20820;-75
2022/04/28 02:46:40;;;;;;;9.80;3.55;;;8.90;99.90;;;;;;5068101;28;20409;-75
2022/04/28 02:49:06;;;;;;;9.35;2.92;;;8.90;99.90;;;;;;4984005;28;20414;-75
2022/04/28 02:51:32;;;;;;;8.43;3.10;;;8.90;99.90;;;;;;4983783;28;20402;-75
2022/04/28 02:53:58;;;;;;;9.80;3.40;;;8.90;99.90;;;;;;4982012;28;20444;-75
2022/04/28 02:56:25;;;;;;;9.75;3.30;;;8.90;99.90;;;;;;4984178;28;20434;-75
2022/04/28 02:58:51;;;;;;;7.55;3.30;;;8.90;99.90;;;;;;5056773;28;20426;-75
2022/04/28 03:01:17;;;;;;;8.90;3.22;;;8.80;99.90;;;;;;5085935;28;20409;-75
2022/04/28 03:03:42;;;;;;;5.75;2.90;;;8.80;99.90;;;;;;5067815;28;20759;-75
2022/04/28 03:11:36;;;;;;;7.82;3.38;;;8.90;99.90;;;;;;5085209;28;20891;-75
2022/04/28 03:14:02;;;;;;;9.80;3.67;;;8.80;99.90;;;;;;5085941;28;20441;-75
2022/04/28 03:16:28;;;;;;;8.82;3.10;;;8.80;99.90;;;;;;5071248;28;20512;-75
2022/04/28 03:18:54;;;;;;;7.17;3.23;;;8.70;99.90;;;;;;5088071;28;20524;-75
2022/04/28 03:21:20;;;;;;;8.50;3.63;;;8.70;99.90;;;;;;5088944;28;20464;-75
2022/04/28 03:23:46;;;;;;;8.32;3.15;;;8.60;99.90;;;;;;5089709;28;20410;-75
2022/04/28 03:26:11;;;;;;;10.77;3.70;;;8.70;99.90;;;;;;5071120;28;20402;-75
2022/04/28 03:28:38;;;;;;;9.30;4.00;;;8.60;99.90;;;;;;5088545;28;21494;-74
2022/04/28 03:31:04;;;;;;;14.27;4.03;;;8.60;99.90;;;;;;5089317;28;20405;-75
2022/04/28 03:33:30;;;;;;;8.95;3.63;;;8.70;99.90;;;;;;5088382;28;20475;-75
2022/04/28 03:35:56;;;;;;;9.50;3.80;;;8.70;99.90;;;;;;5089205;28;20489;-75
2022/04/28 03:38:21;;;;;;;9.00;4.00;;;8.70;99.90;;;;;;5088145;28;20425;-75
2022/04/28 03:40:47;;;;;;;7.23;3.77;;;8.70;99.90;;;;;;5088242;28;20403;-75
2022/04/28 03:43:12;;;;;;;10.90;3.83;;;8.70;99.90;;;;;;5081519;28;20425;-75
2022/04/28 03:45:39;;;;;;;8.80;3.67;;;8.70;99.90;;;;;;5067917;28;20428;-75
2022/04/28 03:48:08;;;;;;;10.40;3.88;;;8.60;99.90;;;;;;5035882;28;20398;-75
2022/04/28 03:50:34;;;;;;;9.15;3.83;;;8.60;99.90;;;;;;5088555;28;20406;-75
2022/04/28 03:52:59;;;;;;;10.68;4.10;;;8.50;99.90;;;;;;5036191;28;20405;-75
2022/04/28 03:55:25;;;;;;;8.80;4.07;;;8.50;99.90;;;;;;5007036;28;20458;-75
2022/04/28 03:57:52;;;;;;;9.32;4.10;;;8.50;99.90;;;;;;5005809;28;20429;-75
2022/04/28 04:00:18;;;;;;;9.48;4.72;;;8.40;99.90;;;;;;5018112;28;20942;-75
2022/04/28 04:02:44;;;;;;;10.03;5.00;;;8.30;99.90;;;;;;5088736;28;20409;-75
2022/04/28 04:05:10;;;;;;;9.15;4.45;;;8.30;99.90;;;;;;5089480;28;20489;-75
2022/04/28 04:07:38;;;;;;;10.70;4.97;;;8.30;99.90;;;;;;5089880;28;20451;-75
2022/04/28 04:10:05;;;;;;;11.60;5.28;;;8.20;99.90;;;;;;5089375;28;20409;-75
2022/04/28 04:12:31;;;;;;;10.55;5.30;;;8.20;99.90;;;;;;5080982;28;20501;-76
2022/04/28 04:14:56;;;;;;;13.30;5.53;;;8.20;99.90;;;;;;5081770;28;20485;-75
2022/04/28 04:17:22;;;;;;;12.90;5.30;;;8.30;99.90;;;;;;5088906;28;20414;-75
2022/04/28 04:19:48;;;;;;;12.65;4.93;;;8.20;99.90;;;;;;5088400;28;20928;-75
2022/04/28 04:22:14;;;;;;;11.93;3.45;;;8.30;99.90;;;;;;5089410;28;20456;-75
2022/04/28 04:24:42;;;;;;;12.48;3.10;;;8.30;99.90;;;;;;5088361;28;20493;-75
2022/04/28 04:27:09;;;;;;;9.75;2.90;;;8.30;99.90;;;;;;5087164;28;20460;-75
2022/04/28 04:29:36;;;;;;;10.82;2.70;;;8.40;99.90;;;;;;5089806;28;20931;-76
2022/04/28 04:34:46;;;;;;;15.03;2.77;;;8.40;99.90;;;;;;5089777;28;20398;-75
2022/04/28 04:37:12;;;;;;;12.20;2.97;;;8.50;99.90;;;;;;5087785;28;20441;-75
2022/04/28 04:39:38;;;;;;;9.97;2.30;;;8.50;99.90;;;;;;5089370;28;20414;-75
2022/04/28 04:42:04;;;;;;;8.38;2.25;;;8.50;99.90;;;;;;5087954;28;20446;-75
2022/04/28 04:44:30;;;;;;;10.65;2.67;;;8.50;99.90;;;;;;5088850;28;20398;-75
2022/04/28 04:46:55;;;;;;;10.10;2.67;;;8.50;99.90;;;;;;5089040;28;20405;-75
2022/04/28 04:49:21;;;;;;;10.83;2.27;;;8.50;99.90;;;;;;4997896;28;20408;-75
2022/04/28 04:51:46;;;;;;;9.93;2.60;;;8.50;99.90;;;;;;5006389;28;20411;-75
2022/04/28 04:54:12;;;;;;;11.33;2.70;;;8.50;99.90;;;;;;5006299;28;20401;-75
2022/04/28 04:56:38;;;;;;;10.68;2.60;;;8.60;99.90;;;;;;5005693;28;20409;-75
2022/04/28 04:59:04;;;;;;;11.77;2.35;;;8.60;99.90;;;;;;5004687;28;20582;-75
2022/04/28 05:01:30;;;;;;;11.48;2.88;;;8.70;99.90;;;;;;5006500;28;20424;-75
2022/04/28 05:03:55;;;;;;;8.37;1.90;;;8.70;99.90;;;;;;5005295;28;20453;-76
2022/04/28 05:06:21;;;;;;;9.80;1.98;;;8.80;99.90;;;;;;5004831;28;20420;-75
2022/04/28 05:08:47;;;;;;;12.60;2.50;;;8.90;99.90;;;;;;5005290;28;20404;-75
2022/04/28 05:11:12;;;;;;;8.87;2.17;;;8.90;99.90;;;;;;5005251;28;20405;-75
2022/04/28 05:13:38;;;;;;;9.82;2.65;;;9.00;99.90;;;;;;5003694;28;20409;-75
2022/04/28 05:16:04;;;;;;;11.43;2.55;;;9.00;99.90;;;;;;5003944;28;20417;-75
2022/04/28 05:18:30;;;;;;;9.35;2.10;;;9.10;99.90;;;;;;5003478;28;20441;-75
2022/04/28 05:20:57;;;;;;;9.50;2.10;;;9.10;99.90;;;;;;5005140;28;20404;-75
2022/04/28 05:23:22;;;;;;;9.50;2.53;;;9.20;99.90;;;;;;5074261;28;20399;-75
2022/04/28 05:25:48;;;;;;;7.73;2.03;;;9.30;99.90;;;;;;5086142;28;20410;-75
2022/04/28 05:28:13;;;;;;;10.77;2.20;;;9.30;99.90;;;;;;5086547;28;20905;-75
2022/04/28 05:30:39;;;;;;;8.95;1.77;;;9.50;99.90;;;;;;5087616;28;20779;-75
2022/04/28 05:33:05;;;;;;;7.13;1.47;;;9.60;99.90;;;;;;5086071;28;20755;-75
2022/04/28 05:35:34;;;;;;;7.72;1.55;;;9.70;99.90;;;;;;5102942;28;20417;-75
2022/04/28 05:38:00;;;;;;;8.57;1.40;;;9.80;99.90;;;;;;5086948;28;20432;-75
2022/04/28 05:40:26;;;;;;;6.85;1.30;;;9.90;99.90;;;;;;5087148;28;20390;-75
2022/04/28 05:45:42;;;;;;;9.37;1.53;;;9.90;99.90;;;;;;5060801;28;20925;-76
2022/04/28 05:48:12;;;;;;;10.18;1.90;;;9.90;99.90;;;;;;4978248;28;22200;-75
2022/04/28 05:50:38;;;;;;;8.68;1.40;;;9.80;99.90;;;;;;4972104;28;20503;-75
2022/04/28 05:53:04;;;;;;;11.18;2.03;;;9.80;99.90;;;;;;4968175;28;21404;-79
2022/04/28 05:55:30;;;;;;;8.60;1.50;;;9.60;99.90;;;;;;4981225;28;20443;-76
2022/04/28 05:57:59;;;;;;;7.55;1.25;;;9.60;99.90;;;;;;5048694;28;20470;-76
2022/04/28 06:00:28;;;;;;;8.63;1.70;;;9.50;99.90;;;;;;5086947;28;20892;-76
2022/04/28 06:02:55;;;;;;;9.68;1.50;;;9.50;99.90;;;;;;5011078;28;20461;-75
2022/04/28 06:05:21;;;;;;;10.15;1.45;;;9.60;99.90;;;;;;5017615;28;20410;-76
2022/04/28 06:07:47;;;;;;;7.85;1.85;;;9.60;99.90;;;;;;5086704;28;20405;-76
2022/04/28 06:10:13;;;;;;;9.60;1.47;;;9.70;99.90;;;;;;5085727;28;20760;-76
2022/04/28 06:12:39;;;;;;;8.52;1.50;;;9.80;99.90;;;;;;5086493;28;20397;-76
2022/04/28 06:15:06;;;;;;;8.25;1.70;;;9.80;99.90;;;;;;5031925;28;20405;-76
2022/04/28 06:17:31;;;;;;;7.70;1.38;;;9.80;99.90;;;;;;5004000;28;20437;-76
2022/04/28 06:19:57;;;;;;;6.53;1.50;;;9.70;99.90;;;;;;5003597;28;20417;-76
2022/04/28 06:22:23;;;;;;;7.90;1.37;;;9.60;99.90;;;;;;5004353;28;20470;-76
2022/04/28 06:24:52;;;;;;;8.43;1.50;;;9.50;99.90;;;;;;5004122;28;20778;-76
2022/04/28 06:27:18;;;;;;;8.40;1.40;;;9.50;99.90;;;;;;5002971;28;20785;-76
2022/04/28 06:29:44;;;;;;;9.87;1.50;;;9.50;99.90;;;;;;5003926;28;20413;-76
2022/04/28 06:32:10;;;;;;;6.57;1.33;;;9.60;99.90;;;;;;5041929;28;20819;-76
2022/04/28 06:34:36;;;;;;;8.85;1.60;;;9.60;99.90;;;;;;5087799;28;20824;-76
2022/04/28 06:37:02;;;;;;;7.93;1.30;;;9.70;99.90;;;;;;5086234;28;20484;-76
2022/04/28 06:39:27;;;;;;;8.27;1.65;;;9.90;99.90;;;;;;5086506;28;20410;-76
2022/04/28 06:41:53;;;;;;;10.33;1.93;;;10.00;99.90;;;;;;5087661;28;20433;-76
2022/04/28 06:44:18;;;;;;;10.40;1.90;;;10.10;99.90;;;;;;5087179;28;20394;-76
2022/04/28 06:46:44;;;;;;;9.57;1.50;;;10.20;99.90;;;;;;5087471;28;20406;-76
2022/04/28 06:49:10;;;;;;;7.73;1.43;;;10.30;99.90;;;;;;5087642;28;20910;-76
2022/04/28 06:51:35;;;;;;;12.00;1.92;;;10.30;99.90;;;;;;5089573;28;21307;-76
2022/04/28 06:54:02;;;;;;;8.63;1.67;;;10.40;99.90;;;;;;5090978;28;20405;-76
2022/04/28 06:56:28;;;;;;;12.32;1.80;;;10.50;99.90;;;;;;5090421;28;20980;-76
2022/04/28 06:58:53;;;;;;;9.23;1.80;;;10.60;99.90;;;;;;5090217;28;20430;-76
2022/04/28 07:01:19;;;;;;;11.17;1.90;;;10.70;99.90;;;;;;5091042;28;20425;-76
2022/04/28 07:03:44;;;;;;;7.50;1.60;;;10.90;99.90;;;;;;5091355;28;20485;-76
2022/04/28 07:06:10;;;;;;;9.07;1.60;;;11.00;99.90;;;;;;5091285;28;20412;-76
2022/04/28 07:08:36;;;;;;;6.53;1.40;;;11.10;99.90;;;;;;5090698;28;20750;-76
2022/04/28 07:11:01;;;;;;;6.60;1.10;;;11.30;99.90;;;;;;5090922;28;20394;-76
2022/04/28 07:13:27;;;;;;;5.47;1.10;;;11.40;99.90;;;;;;5090951;28;20485;-76
2022/04/28 07:15:52;;;;;;;8.03;1.40;;;11.40;99.90;;;;;;5090972;28;20394;-76
2022/04/28 07:18:18;;;;;;;7.25;1.38;;;11.30;99.90;;;;;;5089491;28;20811;-76
2022/04/28 07:20:46;;;;;;;7.83;1.40;;;11.20;99.90;;;;;;5090474;28;20404;-76
2022/04/28 07:23:12;;;;;;;8.48;1.48;;;11.20;99.90;;;;;;5090495;28;20398;-76
2022/04/28 07:25:39;;;;;;;7.22;1.30;;;11.10;99.90;;;;;;5090832;28;20398;-76
2022/04/28 07:28:05;;;;;;;7.70;1.40;;;11.10;99.90;;;;;;5089635;28;20456;-76
2022/04/28 07:30:31;;;;;;;9.43;1.77;;;11.10;99.90;;;;;;5090455;28;20394;-76
2022/04/28 07:32:56;;;;;;;9.57;1.53;;;11.00;99.90;;;;;;5090855;28;20389;-76
2022/04/28 07:35:24;;;;;;;5.22;1.23;;;11.00;99.90;;;;;;5090586;28;20436;-76
2022/04/28 07:37:50;;;;;;;6.32;1.10;;;11.00;99.90;;;;;;5106072;28;20839;-76
2022/04/28 07:40:17;;;;;;;7.85;1.35;;;10.90;99.90;;;;;;5090541;28;20402;-77
2022/04/28 07:42:43;;;;;;;7.88;1.45;;;10.90;99.90;;;;;;5072417;28;20413;-76
2022/04/28 07:45:10;;;;;;;8.68;2.08;;;10.90;99.90;;;;;;5090453;28;20518;-76
2022/04/28 07:47:35;;;;;;;9.93;1.95;;;10.90;99.90;;;;;;5090291;28;20406;-76
2022/04/28 07:50:02;;;;;;;9.77;2.07;;;11.00;99.90;;;;;;5089258;28;20883;-76
2022/04/28 07:52:28;;;;;;;9.25;1.90;;;11.10;99.90;;;;;;5072065;28;20488;-76
2022/04/28 07:54:53;;;;;;;7.63;1.90;;;11.10;99.90;;;;;;5090108;28;20536;-76
2022/04/28 07:57:22;;;;;;;9.68;2.00;;;11.20;99.90;;;;;;5089935;28;20421;-76
2022/04/28 07:59:49;;;;;;;11.85;2.40;;;11.20;99.90;;;;;;5090223;28;20391;-76
2022/04/28 08:02:15;;;;;;;10.65;2.42;;;11.20;99.90;;;;;;5089778;28;20413;-76
2022/04/28 08:04:41;;;;;;;8.48;2.08;;;11.30;99.90;;;;;;5073635;28;20426;-76
2022/04/28 08:07:06;;;;;;;9.07;2.33;;;11.40;99.90;;;;;;5087407;28;20442;-76
2022/04/28 08:09:32;;;;;;;10.47;2.37;;;11.40;99.90;;;;;;5087783;28;20919;-76
2022/04/28 08:11:58;;;;;;;14.75;2.63;;;11.40;99.90;;;;;;5089083;28;20417;-76
2022/04/28 08:14:24;;;;;;;10.23;2.30;;;11.30;99.90;;;;;;5087956;28;20406;-76
2022/04/28 08:16:54;;;;;;;10.23;2.80;;;11.30;99.90;;;;;;5089850;28;20481;-76
2022/04/28 08:19:20;;;;;;;10.73;2.25;;;11.30;99.90;;;;;;5088272;28;20410;-76
2022/04/28 08:21:46;;;;;;;6.80;2.40;;;11.30;99.90;;;;;;5071704;28;20911;-76
2022/04/28 08:24:12;;;;;;;10.70;2.43;;;11.40;99.90;;;;;;5088658;28;20472;-76
2022/04/28 08:26:38;;;;;;;10.52;2.92;;;11.40;99.90;;;;;;5089576;28;20414;-76
2022/04/28 08:29:04;;;;;;;11.10;2.90;;;11.40;99.90;;;;;;5088227;28;20413;-77
2022/04/28 08:31:30;;;;;;;11.73;2.47;;;11.50;99.90;;;;;;5088057;28;20933;-76
2022/04/28 08:33:56;;;;;;;12.48;2.70;;;11.50;99.90;;;;;;5089363;28;20401;-76
2022/04/28 08:36:22;;;;;;;8.45;2.35;;;11.60;99.90;;;;;;5088427;28;20484;-76
2022/04/28 08:38:48;;;;;;;11.67;2.53;;;11.60;99.90;;;;;;5087950;28;20942;-76
2022/04/28 08:41:19;;;;;;;8.13;1.88;;;11.80;99.90;;;;;;5089479;28;20405;-76
2022/04/28 08:43:46;;;;;;;11.10;2.28;;;11.90;99.90;;;;;;5089175;28;20405;-76
2022/04/28 08:48:56;;;;;;;13.18;2.28;;;11.90;99.90;;;;;;5089098;28;20895;-76
2022/04/28 08:51:25;;;;;;;10.23;2.27;;;11.90;99.90;;;;;;5089021;28;20486;-76
2022/04/28 08:53:52;;;;;;;13.10;2.43;;;11.90;99.90;;;;;;5089200;28;20406;-76
2022/04/28 08:56:19;;;;;;;11.50;2.60;;;11.90;99.90;;;;;;5089352;28;20402;-76
2022/04/28 08:58:45;;;;;;;9.48;1.98;;;11.90;99.90;;;;;;5088959;28;20422;-76
2022/04/28 09:01:11;;;;;;;10.70;2.30;;;11.90;99.90;;;;;;5087231;28;20752;-76
2022/04/28 09:03:37;;;;;;;8.15;2.00;;;11.90;99.80;;;;;;5087684;28;20436;-76
2022/04/28 09:06:23;;;;;;;12.32;2.55;;;11.90;99.60;;;;;;5088545;28;20401;-76
2022/04/28 09:08:50;;;;;;;8.57;2.13;;;12.10;99.20;;;;;;5088653;28;20422;-76
2022/04/28 09:11:23;;;;;;;8.75;1.90;;;12.10;99.00;;;;;;5087444;28;20405;-76
2022/04/28 09:14:09;;;;;;;8.40;2.15;;;12.20;99.00;;;;;;5024526;28;20896;-76
2022/04/28 09:16:57;;;;;;;8.30;1.98;;;12.20;98.80;;;;;;5006015;28;20898;-76
2022/04/28 09:19:35;;;;;;;7.32;1.88;;;12.10;98.90;;;;;;5004809;28;20469;-77
2022/04/28 09:22:09;;;;;;;10.83;2.03;;;12.20;98.60;;;;;;5005484;28;20937;-77
2022/04/28 09:24:42;;;;;;;9.27;2.28;;;12.20;98.70;;;;;;5004475;28;20417;-76
2022/04/28 09:27:08;;;;;;;10.82;1.90;;;12.20;98.80;;;;;;5004629;28;20448;-77
2022/04/28 09:29:36;;;;;;;9.75;2.20;;;12.20;98.90;;;;;;5004316;28;20405;-77
2022/04/28 09:32:06;;;;;;;9.30;2.10;;;12.20;98.70;;;;;;5003982;28;20467;-77
2022/04/28 09:34:32;;;;;;;12.95;2.53;;;12.30;98.70;;;;;;5004244;28;20504;-76
2022/04/28 09:36:58;;;;;;;10.02;2.10;;;12.40;99.00;;;;;;5005657;28;20480;-76
2022/04/28 09:42:31;;;;;;;11.85;2.42;;;12.30;98.80;;;;;;5004460;28;20448;-76
2022/04/28 09:44:59;;;;;;;11.00;2.08;;;12.20;99.10;;;;;;5004138;28;20942;-76
2022/04/28 09:47:26;;;;;;;10.88;1.98;;;12.30;98.80;;;;;;5005072;28;20420;-76
2022/04/28 09:49:53;;;;;;;9.88;1.90;;;12.30;98.50;;;;;;5005360;28;20416;-76
2022/04/28 09:52:19;;;;;;;11.20;1.95;;;12.40;98.50;;;;;;5005100;28;20409;-76
2022/04/28 09:54:47;;;;;;;10.75;1.98;;;12.40;98.20;;;;;;5004390;28;20417;-76
2022/04/28 09:57:13;;;;;;;9.40;2.30;;;12.50;98.40;;;;;;5004115;28;20430;-77
2022/04/28 09:59:39;;;;;;;10.50;1.65;;;12.50;98.30;;;;;;5004962;28;20432;-77
2022/04/28 10:02:13;;;;;;;10.48;1.92;;;12.50;98.60;;;;;;5005306;28;20408;-76
2022/04/28 10:04:41;;;;;;;10.48;1.98;;;12.50;98.60;;;;;;5005291;28;20415;-76
2022/04/28 10:07:07;;;;;;;10.93;2.10;;;12.60;98.70;;;;;;5005083;28;20413;-77
2022/04/28 10:09:34;;;;;;;10.68;2.05;;;12.60;98.70;;;;;;5005179;28;20428;-77
2022/04/28 10:12:00;;;;;;;8.13;1.57;;;12.70;98.60;;;;;;5004575;28;20451;-76
2022/04/28 10:14:27;;;;;;;9.20;1.85;;;12.70;98.10;;;;;;4984199;28;20445;-76
2022/04/28 10:16:54;;;;;;;11.23;1.98;;;12.90;98.00;;;;;;4984555;28;20476;-77
2022/04/28 10:19:27;;;;;;;9.10;1.92;;;12.90;96.90;;;;;;4985550;28;20445;-76
2022/04/28 10:22:00;;;;;;;9.18;2.03;;;12.80;96.80;;;;;;4983978;28;21046;-76
2022/04/28 10:33:02;;;;;;;12.18;1.65;;;14.10;95.40;;;;;;4987759;28;20819;-77
2022/04/28 10:35:39;;;;;;;8.85;1.60;;;14.10;95.10;;;;;;4987529;28;20421;-76
2022/04/28 10:38:31;;;;;;;9.60;1.75;;;14.10;94.50;;;;;;4988617;28;20470;-76
2022/04/28 10:41:07;;;;;;;12.25;2.10;;;14.20;94.80;;;;;;4994548;28;20427;-76
2022/04/28 10:43:33;;;;;;;10.37;1.70;;;14.50;94.50;;;;;;5090425;28;20440;-77
2022/04/28 10:46:07;;;;;;;9.40;1.63;;;14.70;94.10;;;;;;4988590;28;20505;-77
2022/04/28 10:48:42;;;;;;;8.37;1.53;;;15.10;93.30;;;;;;4988944;28;20490;-77
2022/04/28 10:51:18;;;;;;;10.27;1.73;;;15.30;92.90;;;;;;4987013;28;20773;-77
2022/04/28 10:54:06;;;;;;;7.18;1.48;;;15.80;92.70;;;;;;4988992;28;20426;-77
2022/04/28 10:56:56;;;;;;;9.25;1.90;;;16.50;91.30;;;;;;4987770;28;21034;-77
2022/04/28 10:59:34;;;;;;;10.20;1.73;;;16.80;90.80;;;;;;4987011;28;20446;-77
2022/04/28 11:02:13;;;;;;;6.80;1.50;;;16.80;89.00;;;;;;4988410;28;20418;-77
2022/04/28 11:04:40;;;;;;;9.43;1.70;;;16.90;87.50;;;;;;4986548;28;20476;-77
2022/04/28 11:07:12;;;;;;;11.75;1.48;;;17.00;87.30;;;;;;4988408;28;20446;-77
2022/04/28 11:09:40;;;;;;;7.18;1.45;;;17.30;86.90;;;;;;4987074;28;20591;-77
2022/04/28 11:12:13;;;;;;;10.10;1.85;;;17.10;83.70;;;;;;4993169;28;20777;-77
2022/04/28 11:14:48;;;;;;;12.07;1.80;;;17.10;86.50;;;;;;5089540;28;20414;-77
2022/04/28 11:17:16;;;;;;;7.68;1.52;;;17.00;83.30;;;;;;5089788;28;20442;-77
2022/04/28 11:19:43;;;;;;;8.70;1.48;;;16.80;83.70;;;;;;5089707;28;20937;-77
2022/04/28 11:22:11;;;;;;;9.38;1.60;;;16.60;83.70;;;;;;5090687;28;20496;-77
2022/04/28 11:24:40;;;;;;;10.35;1.67;;;16.60;84.00;;;;;;5090605;28;20999;-77
2022/04/28 11:27:06;;;;;;;8.13;1.60;;;16.90;82.80;;;;;;5089583;28;20934;-77
2022/04/28 11:29:32;;;;;;;11.48;1.80;;;17.00;82.30;;;;;;5089637;28;20805;-77
2022/04/28 11:32:00;;;;;;;8.17;1.40;;;17.00;82.30;;;;;;5072640;28;20398;-77
2022/04/28 11:34:29;;;;;;;7.90;1.50;;;17.10;83.10;;;;;;5090268;28;20462;-77
2022/04/28 11:36:55;;;;;;;8.23;1.50;;;17.40;82.50;;;;;;5088927;28;20409;-77
2022/04/28 11:39:24;;;;;;;8.52;1.50;;;17.40;81.50;;;;;;5089404;28;20433;-77
2022/04/28 11:41:52;;;;;;;10.07;1.67;;;17.20;80.50;;;;;;5090535;28;20476;-76
2022/04/28 11:44:19;;;;;;;7.82;1.45;;;17.10;79.10;;;;;;5088848;28;20438;-77
2022/04/28 11:46:44;;;;;;;9.27;1.48;;;17.10;79.50;;;;;;5089406;28;20432;-77
2022/04/28 11:49:11;;;;;;;7.47;1.20;;;17.40;80.00;;;;;;5090324;28;20402;-77
2022/04/28 11:51:36;;;;;;;8.20;1.40;;;17.90;80.80;;;;;;5072042;28;20479;-77
2022/04/28 11:54:03;;;;;;;6.45;1.40;;;18.40;78.60;;;;;;5090000;28;20487;-77
2022/04/28 11:56:31;;;;;;;8.77;1.83;;;18.30;75.50;;;;;;5090031;28;20433;-77
2022/04/28 11:59:00;;;;;;;8.07;1.48;;;18.00;74.70;;;;;;5072178;28;20510;-77
2022/04/28 12:01:32;;;;;;;8.98;1.48;;;17.70;75.90;;;;;;5071989;28;20416;-77
2022/04/28 12:03:58;;;;;;;8.10;1.30;;;17.60;76.10;;;;;;5089906;28;20418;-76
2022/04/28 12:06:25;;;;;;;7.93;1.15;;;17.40;75.30;;;;;;5105574;28;20406;-77
2022/04/28 12:14:31;;;;;;;9.02;1.45;;;18.00;76.20;;;;;;5089355;28;20433;-77
2022/04/28 12:19:58;;;;;;;8.52;1.40;;;18.40;74.60;;;;;;5089352;28;20463;-77
2022/04/28 12:22:35;;;;;;;6.47;1.27;;;18.30;73.00;;;;;;4966133;28;20780;-77
2022/04/28 12:25:10;;;;;;;7.80;1.23;;;17.90;72.00;;;;;;5067667;28;20424;-77
2022/04/28 12:27:51;;;;;;;6.83;1.40;;;17.70;71.80;;;;;;4967404;28;20408;-77
2022/04/28 12:30:18;;;;;;;5.82;1.17;;;17.60;72.20;;;;;;4998874;28;20456;-77
2022/04/28 12:32:49;;;;;;;6.82;1.23;;;17.80;72.30;;;;;;5006939;28;20512;-77
2022/04/28 12:35:35;;;;;;;6.72;1.20;;;17.90;73.40;;;;;;5006362;28;20415;-77
2022/04/28 12:38:07;;;;;;;8.15;1.50;;;17.90;72.60;;;;;;5006460;28;21029;-77
2022/04/28 12:40:42;;;;;;;7.03;1.23;;;17.80;72.30;;;;;;4988939;28;20447;-76
2022/04/28 12:43:09;;;;;;;7.65;1.30;;;17.70;71.80;;;;;;5006529;28;20433;-77
2022/04/28 12:45:43;;;;;;;7.90;1.42;;;17.80;72.80;;;;;;5011838;28;20404;-77
2022/04/28 12:48:32;;;;;;;7.78;1.63;;;18.00;72.50;;;;;;5088052;28;20801;-77
2022/04/28 12:51:19;;;;;;;7.93;1.20;;;18.20;72.00;;;;;;5089041;28;20418;-76
2022/04/28 12:53:53;;;;;;;6.87;0.93;;;18.30;71.50;;;;;;5087773;28;20418;-77
2022/04/28 12:56:30;;;;;;;6.65;1.10;;;18.50;71.30;;;;;;5089051;28;20417;-76
2022/04/28 12:58:59;;;;;;;8.30;1.30;;;18.70;71.40;;;;;;5089064;28;20436;-77
2022/04/28 13:01:25;;;;;;;7.18;1.55;;;19.00;72.50;;;;;;5088810;28;20421;-77
2022/04/28 13:03:59;;;;;;;7.20;1.10;;;19.30;68.10;;;;;;5087727;28;20481;-77
2022/04/28 13:06:26;;;;;;;5.97;1.30;;;19.30;67.40;;;;;;5088832;28;20403;-77
2022/04/28 13:08:52;;;;;;;5.50;1.20;;;19.10;67.80;;;;;;5087647;28;20424;-77
2022/04/28 13:11:39;;;;;;;6.82;1.25;;;19.20;68.60;;;;;;5088825;28;20398;-77
2022/04/28 13:14:06;;;;;;;7.63;1.45;;;19.30;66.40;;;;;;5087943;28;20814;-76
2022/04/28 13:16:33;;;;;;;7.63;1.20;;;19.20;67.40;;;;;;5088417;28;20471;-77
2022/04/28 13:18:58;;;;;;;6.57;1.42;;;19.30;68.00;;;;;;5088292;28;20425;-77
2022/04/28 13:21:24;;;;;;;5.65;0.95;;;19.60;67.00;;;;;;5024894;28;20432;-77
2022/04/28 13:23:51;;;;;;;5.67;0.90;;;19.90;65.60;;;;;;5006079;28;20404;-77
2022/04/28 13:26:19;;;;;;;8.10;1.33;;;19.80;66.00;;;;;;5005460;28;20401;-77
2022/04/28 13:28:46;;;;;;;9.30;1.30;;;19.80;65.80;;;;;;5005967;28;20907;-77